createdAt,value
2024-02-08T00:01:29.686Z,5.10
2024-02-08T00:03:58.304Z,5.70
2024-02-08T00:06:26.880Z,4.70
2024-02-08T00:08:55.807Z,5.07
2024-02-08T00:11:24.250Z,4.45
2024-02-08T00:13:54.550Z,4.75
2024-02-08T00:16:23.036Z,4.32
2024-02-08T00:18:51.838Z,4.45
2024-02-08T00:21:20.212Z,3.83
2024-02-08T00:27:19.980Z,3.63
2024-02-08T00:29:49.990Z,4.35
2024-02-08T00:32:18.581Z,4.25
2024-02-08T00:34:47.595Z,4.88
2024-02-08T00:37:16.310Z,4.13
2024-02-08T00:39:45.133Z,3.70
2024-02-08T00:42:13.686Z,3.60
2024-02-08T00:44:43.549Z,3.22
2024-02-08T00:47:13.725Z,2.88
2024-02-08T00:49:42.958Z,3.33
2024-02-08T00:52:11.916Z,2.83
2024-02-08T00:54:40.639Z,3.03
2024-02-08T00:57:11.992Z,3.05
2024-02-08T00:59:40.869Z,3.40
2024-02-08T01:02:10.604Z,3.53
2024-02-08T01:04:40.939Z,3.40
2024-02-08T01:07:09.325Z,3.67
2024-02-08T01:09:38.012Z,3.13
2024-02-08T01:12:06.764Z,3.33
2024-02-08T01:14:35.235Z,3.33
2024-02-08T01:17:06.262Z,3.50
2024-02-08T01:19:35.600Z,3.45
2024-02-08T01:22:05.440Z,3.13
2024-02-08T01:24:33.964Z,3.20
2024-02-08T01:27:02.429Z,2.85
2024-02-08T01:29:31.128Z,3.58
2024-02-08T01:32:02.061Z,2.20
2024-02-08T01:34:32.255Z,2.20
2024-02-08T01:37:01.391Z,2.70
2024-02-08T01:39:31.435Z,2.63
2024-02-08T01:42:00.352Z,2.83
2024-02-08T01:44:29.177Z,2.65
2024-02-08T01:46:57.727Z,2.43
2024-02-08T01:49:27.613Z,2.42
2024-02-08T01:52:01.635Z,2.80
2024-02-08T01:54:32.793Z,2.92
2024-02-08T01:57:02.735Z,2.45
2024-02-08T01:59:33.275Z,3.00
2024-02-08T02:02:03.190Z,2.43
2024-02-08T02:04:32.322Z,2.88
2024-02-08T02:07:02.126Z,3.67
2024-02-08T02:09:33.114Z,2.88
2024-02-08T02:12:03.736Z,2.17
2024-02-08T02:14:32.811Z,2.70
2024-02-08T02:17:17.963Z,2.55
2024-02-08T02:19:48.474Z,1.90
2024-02-08T02:22:20.837Z,2.33
2024-02-08T02:24:50.879Z,2.50
2024-02-08T02:27:20.647Z,2.30
2024-02-08T02:29:54.838Z,2.08
2024-02-08T02:32:23.749Z,2.53
2024-02-08T02:34:53.132Z,2.67
2024-02-08T02:37:24.124Z,2.65
2024-02-08T02:39:54.459Z,2.45
2024-02-08T02:42:22.953Z,2.47
2024-02-08T02:44:51.576Z,2.20
2024-02-08T02:47:27.179Z,2.35
2024-02-08T02:49:56.583Z,2.10
2024-02-08T02:52:26.842Z,2.90
2024-02-08T02:54:55.351Z,2.33
2024-02-08T02:57:23.858Z,2.78
2024-02-08T02:59:52.371Z,2.67
2024-02-08T03:02:29.763Z,2.70
2024-02-08T03:04:59.142Z,2.83
2024-02-08T03:07:32.373Z,2.28
2024-02-08T03:10:01.218Z,2.67
2024-02-08T03:12:31.490Z,2.97
2024-02-08T03:15:02.278Z,2.72
2024-02-08T03:17:33.921Z,3.15
2024-02-08T03:20:06.308Z,3.30
2024-02-08T03:22:36.431Z,2.78
2024-02-08T03:25:06.593Z,3.17
2024-02-08T03:27:35.322Z,3.15
2024-02-08T03:30:06.079Z,2.70
2024-02-08T03:32:36.667Z,2.55
2024-02-08T03:35:06.803Z,2.53
2024-02-08T03:37:36.939Z,2.45
2024-02-08T03:40:05.704Z,2.90
2024-02-08T03:42:34.755Z,2.47
2024-02-08T03:45:08.112Z,2.40
2024-02-08T03:47:39.886Z,2.90
2024-02-08T03:50:08.729Z,2.25
2024-02-08T03:52:38.781Z,3.08
2024-02-08T03:55:09.678Z,2.42
2024-02-08T03:57:38.713Z,2.40
2024-02-08T04:00:14.298Z,2.40
2024-02-08T04:02:44.920Z,2.35
2024-02-08T04:05:21.442Z,2.38
2024-02-08T04:08:01.561Z,2.35
2024-02-08T04:11:03.492Z,2.75
2024-02-08T04:13:49.698Z,2.10
2024-02-08T04:16:35.727Z,2.42
2024-02-08T04:19:22.367Z,1.92
2024-02-08T04:22:04.884Z,2.33
2024-02-08T04:24:52.578Z,2.80
2024-02-08T04:27:38.942Z,2.33
2024-02-08T04:30:37.167Z,2.30
2024-02-08T04:33:23.707Z,2.80
2024-02-08T04:36:10.315Z,2.17
2024-02-08T04:38:58.594Z,2.50
2024-02-08T04:41:46.195Z,2.33
2024-02-08T04:44:32.248Z,2.40
2024-02-08T04:47:18.333Z,2.35
2024-02-08T04:50:04.614Z,2.00
2024-02-08T04:52:48.059Z,2.28
2024-02-08T04:55:16.897Z,2.78
2024-02-08T04:57:49.233Z,2.47
2024-02-08T05:00:18.073Z,2.55
2024-02-08T05:02:46.674Z,2.85
2024-02-08T05:05:15.573Z,2.60
2024-02-08T05:07:44.075Z,2.45
2024-02-08T05:10:13.458Z,2.20
2024-02-08T05:12:42.064Z,2.28
2024-02-08T05:15:14.663Z,2.58
2024-02-08T05:17:43.124Z,2.40
2024-02-08T05:20:13.377Z,2.33
2024-02-08T05:22:43.761Z,2.47
2024-02-08T05:25:12.880Z,2.75
2024-02-08T05:27:41.376Z,2.35
2024-02-08T05:30:10.632Z,2.88
2024-02-08T05:32:40.657Z,2.60
2024-02-08T05:35:14.898Z,2.85
2024-02-08T05:37:43.578Z,2.55
2024-02-08T05:40:15.591Z,2.53
2024-02-08T05:42:45.269Z,2.45
2024-02-08T05:45:24.715Z,3.38
2024-02-08T05:47:54.979Z,2.20
2024-02-08T05:50:24.003Z,2.55
2024-02-08T05:52:58.648Z,3.05
2024-02-08T05:55:27.574Z,2.38
2024-02-08T05:58:00.255Z,3.08
2024-02-08T06:00:37.429Z,2.85
2024-02-08T06:03:07.875Z,2.70
2024-02-08T06:05:36.285Z,3.00
2024-02-08T06:08:13.383Z,3.38
2024-02-08T06:10:46.760Z,3.08
2024-02-08T06:13:15.628Z,2.97
2024-02-08T06:15:48.808Z,3.80
2024-02-08T06:18:21.777Z,3.10
2024-02-08T06:21:00.865Z,5.82
2024-02-08T06:23:35.870Z,6.68
2024-02-08T06:26:18.511Z,4.45
2024-02-08T06:28:48.827Z,3.90
2024-02-08T06:31:20.040Z,4.10
2024-02-08T06:34:05.297Z,4.60
2024-02-08T06:36:35.721Z,4.15
2024-02-08T06:39:22.130Z,4.55
2024-02-08T06:41:53.724Z,4.68
2024-02-08T06:44:40.109Z,5.35
2024-02-08T06:47:31.246Z,8.32
2024-02-08T06:50:18.606Z,7.68
2024-02-08T06:53:05.148Z,5.43
2024-02-08T06:55:47.484Z,8.60
2024-02-08T06:58:34.142Z,10.00
2024-02-08T07:01:20.638Z,11.27
2024-02-08T07:04:07.483Z,9.00
2024-02-08T07:06:54.997Z,7.35
2024-02-08T07:09:41.388Z,8.65
2024-02-08T07:12:27.367Z,7.53
2024-02-08T07:15:14.034Z,5.88
2024-02-08T07:18:00.025Z,6.07
2024-02-08T07:20:46.338Z,5.82
2024-02-08T07:23:34.436Z,6.05
2024-02-08T07:26:21.070Z,4.63
2024-02-08T07:29:07.268Z,5.50
2024-02-08T07:31:53.546Z,4.65
2024-02-08T07:34:39.736Z,5.03
2024-02-08T07:37:20.497Z,5.38
2024-02-08T07:39:55.315Z,5.65
2024-02-08T07:42:31.390Z,4.63
2024-02-08T07:45:06.620Z,4.05
2024-02-08T07:47:35.241Z,3.97
2024-02-08T07:50:07.144Z,4.38
2024-02-08T07:52:39.758Z,4.45
2024-02-08T07:55:27.917Z,4.45
2024-02-08T07:58:00.332Z,4.25
2024-02-08T08:00:43.861Z,4.10
2024-02-08T08:03:17.716Z,3.10
2024-02-08T08:05:52.393Z,3.05
2024-02-08T08:08:27.915Z,2.67
2024-02-08T08:11:03.719Z,3.05
2024-02-08T08:13:50.698Z,3.45
2024-02-08T08:16:37.242Z,2.78
2024-02-08T08:19:14.983Z,3.10
2024-02-08T08:22:06.079Z,3.55
2024-02-08T08:24:53.905Z,3.45
2024-02-08T08:27:34.147Z,3.70
2024-02-08T08:30:04.927Z,3.53
2024-02-08T08:33:08.513Z,3.35
2024-02-08T08:35:47.671Z,3.17
2024-02-08T08:38:30.045Z,3.10
2024-02-08T08:41:08.913Z,2.67
2024-02-08T08:43:44.390Z,3.20
2024-02-08T08:46:12.981Z,4.32
2024-02-08T08:48:48.014Z,4.88
2024-02-08T08:51:16.934Z,8.73
2024-02-08T08:53:46.497Z,5.60
2024-02-08T08:56:15.229Z,4.82
2024-02-08T08:58:51.170Z,4.68
2024-02-08T09:01:31.556Z,4.28
2024-02-08T09:04:11.817Z,5.35
2024-02-08T09:06:43.428Z,4.35
2024-02-08T09:09:26.071Z,3.85
2024-02-08T09:11:59.090Z,3.33
2024-02-08T09:14:32.255Z,3.75
2024-02-08T09:17:23.866Z,3.90
2024-02-08T09:19:53.099Z,3.42
2024-02-08T09:22:21.847Z,3.72
2024-02-08T09:24:52.195Z,3.80
2024-02-08T09:27:27.312Z,3.60
2024-02-08T09:29:58.564Z,3.92
2024-02-08T09:32:48.661Z,3.70
2024-02-08T09:35:18.396Z,3.40
2024-02-08T09:37:50.688Z,12.52
2024-02-08T09:40:43.750Z,26.50
2024-02-08T09:43:19.287Z,9.70
2024-02-08T09:46:02.990Z,4.88
2024-02-08T09:48:44.699Z,4.35
2024-02-08T09:51:15.080Z,3.85
2024-02-08T09:53:53.626Z,3.80
2024-02-08T09:56:30.510Z,4.38
2024-02-08T09:59:10.491Z,4.07
2024-02-08T10:01:45.256Z,3.75
2024-02-08T10:04:21.443Z,3.85
2024-02-08T10:07:07.074Z,4.45
2024-02-08T10:09:42.406Z,4.65
2024-02-08T10:12:20.512Z,4.55
2024-02-08T10:14:52.237Z,4.32
2024-02-08T10:17:26.397Z,3.80
2024-02-08T10:20:11.677Z,3.75
2024-02-08T10:22:54.516Z,3.33
2024-02-08T10:25:42.261Z,3.75
2024-02-08T10:28:11.102Z,3.90
2024-02-08T10:30:42.910Z,6.90
2024-02-08T10:33:16.657Z,4.32
2024-02-08T10:35:49.121Z,3.45
2024-02-08T10:38:26.634Z,4.75
2024-02-08T10:40:58.409Z,3.08
2024-02-08T10:43:27.298Z,3.03
2024-02-08T10:46:03.932Z,3.47
2024-02-08T10:48:32.685Z,3.75
2024-02-08T10:51:04.691Z,3.40
2024-02-08T10:53:49.770Z,3.50
2024-02-08T10:56:19.786Z,2.90
2024-02-08T10:58:57.095Z,3.35
2024-02-08T11:01:39.213Z,3.63
2024-02-08T11:04:19.655Z,3.53
2024-02-08T11:06:59.694Z,3.70
2024-02-08T11:09:29.101Z,3.42
2024-02-08T11:12:01.088Z,3.45
2024-02-08T11:14:31.282Z,4.18
2024-02-08T11:17:06.021Z,2.95
2024-02-08T11:19:37.104Z,3.35
2024-02-08T11:22:20.032Z,3.00
2024-02-08T11:24:59.894Z,2.78
2024-02-08T11:27:30.251Z,3.92
2024-02-08T11:29:59.430Z,3.00
2024-02-08T11:32:28.547Z,3.38
2024-02-08T11:35:01.949Z,2.97
2024-02-08T11:37:39.848Z,3.45
2024-02-08T11:40:13.004Z,3.50
2024-02-08T11:42:43.676Z,3.28
2024-02-08T11:45:12.727Z,3.85
2024-02-08T11:47:43.537Z,3.45
2024-02-08T11:50:22.521Z,3.42
2024-02-08T11:52:59.372Z,3.47
2024-02-08T11:55:30.443Z,3.90
2024-02-08T11:57:59.803Z,3.05
2024-02-08T12:00:28.585Z,3.55
2024-02-08T12:02:59.780Z,3.05
2024-02-08T12:05:29.561Z,4.10
2024-02-08T12:08:11.742Z,4.78
2024-02-08T12:10:43.948Z,3.88
2024-02-08T12:13:15.647Z,3.80
2024-02-08T12:15:58.113Z,2.40
2024-02-08T12:18:28.755Z,2.60
2024-02-08T12:20:58.645Z,3.10
2024-02-08T12:23:32.498Z,2.95
2024-02-08T12:26:02.991Z,3.60
2024-02-08T12:28:33.031Z,3.22
2024-02-08T12:31:02.281Z,2.55
2024-02-08T12:33:33.782Z,2.80
2024-02-08T12:36:02.569Z,3.20
2024-02-08T12:38:32.465Z,2.88
2024-02-08T12:41:03.946Z,2.78
2024-02-08T12:43:35.562Z,2.90
2024-02-08T12:46:04.803Z,4.10
2024-02-08T12:48:33.238Z,2.78
2024-02-08T12:51:05.279Z,2.92
2024-02-08T12:53:35.532Z,2.20
2024-02-08T12:56:13.130Z,2.15
2024-02-08T12:58:43.254Z,2.08
2024-02-08T13:01:16.398Z,2.08
2024-02-08T13:03:45.494Z,2.20
2024-02-08T13:06:14.366Z,2.30
2024-02-08T13:08:47.237Z,2.15
2024-02-08T13:11:22.732Z,2.55
2024-02-08T13:13:51.277Z,2.20
2024-02-08T13:16:21.005Z,2.33
2024-02-08T13:18:56.001Z,2.13
2024-02-08T13:21:26.263Z,1.95
2024-02-08T13:23:57.232Z,2.63
2024-02-08T13:26:33.055Z,2.15
2024-02-08T13:29:05.158Z,2.22
2024-02-08T13:31:33.835Z,2.15
2024-02-08T13:34:03.171Z,2.20
2024-02-08T13:36:32.005Z,2.20
2024-02-08T13:39:01.882Z,1.90
2024-02-08T13:41:34.858Z,1.70
2024-02-08T13:44:03.568Z,2.28
2024-02-08T13:46:34.350Z,2.03
2024-02-08T13:49:07.741Z,1.90
2024-02-08T13:51:36.581Z,2.85
2024-02-08T13:54:09.644Z,1.95
2024-02-08T13:56:38.430Z,1.77
2024-02-08T13:59:07.294Z,1.63
2024-02-08T14:01:35.896Z,2.20
2024-02-08T14:04:07.325Z,1.90
2024-02-08T14:06:42.335Z,2.20
2024-02-08T14:09:21.823Z,2.10
2024-02-08T14:11:53.637Z,2.65
2024-02-08T14:14:25.558Z,2.40
2024-02-08T14:16:57.409Z,2.83
2024-02-08T14:19:34.982Z,3.20
2024-02-08T14:22:07.635Z,3.38
2024-02-08T14:24:40.381Z,2.78
2024-02-08T14:27:11.695Z,3.13
2024-02-08T14:29:40.263Z,2.63
2024-02-08T14:32:17.070Z,2.00
2024-02-08T14:34:54.067Z,2.28
2024-02-08T14:37:23.428Z,2.80
2024-02-08T14:39:54.147Z,1.80
2024-02-08T14:42:29.179Z,2.17
2024-02-08T14:44:58.122Z,2.10
2024-02-08T14:47:27.388Z,2.00
2024-02-08T14:50:02.160Z,2.45
2024-02-08T14:52:37.015Z,2.08
2024-02-08T14:55:21.286Z,3.00
2024-02-08T14:57:53.907Z,2.22
2024-02-08T15:00:41.185Z,3.00
2024-02-08T15:03:11.089Z,3.08
2024-02-08T15:05:49.643Z,3.22
2024-02-08T15:08:32.976Z,2.83
2024-02-08T15:11:09.913Z,2.67
2024-02-08T15:16:09.317Z,2.92
2024-02-08T15:18:48.765Z,3.10
2024-02-08T15:21:18.478Z,3.10
2024-02-08T15:24:20.281Z,1.52
2024-02-08T15:27:05.886Z,0.80
2024-02-08T15:29:46.258Z,0.40
2024-02-08T15:32:19.379Z,1.27
2024-02-08T15:35:06.604Z,0.90
2024-02-08T15:37:42.912Z,0.90
2024-02-08T15:40:14.151Z,0.90
2024-02-08T15:42:43.585Z,0.47
2024-02-08T15:45:15.821Z,0.35
2024-02-08T15:48:02.391Z,0.95
2024-02-08T15:50:47.677Z,1.08
2024-02-08T15:53:21.232Z,0.93
2024-02-08T15:55:51.223Z,1.05
2024-02-08T15:58:26.983Z,1.55
2024-02-08T16:01:19.335Z,1.90
2024-02-08T16:03:56.864Z,1.20
2024-02-08T16:06:44.751Z,1.20
2024-02-08T16:09:27.221Z,3.05
2024-02-08T16:12:15.565Z,2.10
2024-02-08T16:14:48.396Z,1.48
2024-02-08T16:17:35.157Z,1.70
2024-02-08T16:20:10.329Z,1.40
2024-02-08T16:22:49.223Z,2.10
2024-02-08T16:25:24.772Z,2.03
2024-02-08T16:27:57.435Z,1.73
2024-02-08T16:30:30.753Z,2.25
2024-02-08T16:33:09.942Z,2.22
2024-02-08T16:35:59.135Z,2.25
2024-02-08T16:38:31.738Z,1.90
2024-02-08T16:41:06.747Z,3.05
2024-02-08T16:43:45.074Z,2.60
2024-02-08T16:46:23.413Z,2.45
2024-02-08T16:49:01.511Z,2.40
2024-02-08T16:51:39.149Z,2.60
2024-02-08T16:54:30.916Z,3.05
2024-02-08T16:56:59.633Z,3.03
2024-02-08T16:59:36.930Z,3.10
2024-02-08T17:02:09.165Z,2.10
2024-02-08T17:04:49.623Z,3.90
2024-02-08T17:07:40.841Z,3.65
2024-02-08T17:10:10.615Z,3.22
2024-02-08T17:12:58.452Z,3.72
2024-02-08T17:15:29.485Z,3.15
2024-02-08T17:18:07.774Z,3.67
2024-02-08T17:20:54.223Z,2.28
2024-02-08T17:23:29.545Z,2.13
2024-02-08T17:26:07.864Z,1.73
2024-02-08T17:28:51.458Z,2.05
2024-02-08T17:31:29.983Z,2.03
2024-02-08T17:34:02.051Z,2.10
2024-02-08T17:36:34.706Z,2.00
2024-02-08T17:39:07.540Z,2.17
2024-02-08T17:41:39.644Z,2.38
2024-02-08T17:44:08.119Z,2.35
2024-02-08T17:46:40.167Z,2.20
2024-02-08T17:49:17.179Z,3.22
2024-02-08T17:51:51.311Z,3.08
2024-02-08T17:54:26.363Z,2.92
2024-02-08T17:57:03.289Z,3.83
2024-02-08T17:59:32.197Z,3.97
2024-02-08T18:02:03.897Z,4.15
2024-02-08T18:04:38.246Z,4.25
2024-02-08T18:07:12.939Z,4.13
2024-02-08T18:09:43.523Z,3.47
2024-02-08T18:12:22.959Z,3.40
2024-02-08T18:14:52.497Z,4.25
2024-02-08T18:17:25.547Z,4.10
2024-02-08T18:19:56.421Z,3.50
2024-02-08T18:22:30.156Z,3.40
2024-02-08T18:25:00.496Z,3.70
2024-02-08T18:27:33.960Z,3.45
2024-02-08T18:30:10.579Z,3.78
2024-02-08T18:32:40.419Z,3.35
2024-02-08T18:35:11.278Z,3.05
2024-02-08T18:37:40.014Z,2.97
2024-02-08T18:40:10.044Z,3.10
2024-02-08T18:42:39.871Z,3.53
2024-02-08T18:45:17.802Z,3.20
2024-02-08T18:47:51.357Z,2.88
2024-02-08T18:50:26.205Z,2.83
2024-02-08T18:52:55.070Z,3.33
2024-02-08T18:55:40.966Z,2.97
2024-02-08T18:58:11.748Z,2.60
2024-02-08T19:00:42.616Z,2.97
2024-02-08T19:03:16.949Z,2.20
2024-02-08T19:05:50.624Z,2.50
2024-02-08T19:08:20.938Z,3.00
2024-02-08T19:10:54.084Z,2.60
2024-02-08T19:13:28.812Z,2.50
2024-02-08T19:15:58.246Z,2.72
2024-02-08T19:18:33.560Z,2.90
2024-02-08T19:21:03.681Z,2.58
2024-02-08T19:23:35.332Z,2.10
2024-02-08T19:26:09.750Z,2.53
2024-02-08T19:28:38.385Z,3.50
2024-02-08T19:31:10.918Z,2.65
2024-02-08T19:33:43.209Z,2.83
2024-02-08T19:36:23.469Z,3.25
2024-02-08T19:38:54.482Z,3.20
2024-02-08T19:41:23.061Z,4.00
2024-02-08T19:43:51.789Z,3.55
2024-02-08T19:46:20.658Z,4.03
2024-02-08T19:48:53.587Z,3.28
2024-02-08T19:51:26.431Z,2.70
2024-02-08T19:54:00.434Z,3.42
2024-02-08T19:56:35.332Z,3.25
2024-02-08T19:59:06.752Z,3.75
2024-02-08T20:01:37.634Z,3.35
2024-02-08T20:04:15.164Z,3.28
2024-02-08T20:06:48.544Z,3.63
2024-02-08T20:09:19.909Z,3.47
2024-02-08T20:11:53.633Z,2.92
2024-02-08T20:14:23.249Z,3.05
2024-02-08T20:16:52.461Z,2.80
2024-02-08T20:19:20.991Z,2.83
2024-02-08T20:21:51.756Z,2.50
2024-02-08T20:24:21.135Z,3.20
2024-02-08T20:26:50.168Z,3.00
2024-02-08T20:29:20.953Z,3.55
2024-02-08T20:31:52.665Z,3.90
2024-02-08T20:34:21.625Z,3.80
2024-02-08T20:36:55.103Z,3.47
2024-02-08T20:39:25.815Z,3.17
2024-02-08T20:41:55.561Z,2.70
2024-02-08T20:44:25.492Z,3.10
2024-02-08T20:46:57.717Z,3.15
2024-02-08T20:49:29.401Z,2.55
2024-02-08T20:52:00.556Z,3.88
2024-02-08T20:54:33.237Z,2.85
2024-02-08T20:57:03.910Z,3.42
2024-02-08T20:59:36.224Z,2.53
2024-02-08T21:02:05.095Z,4.20
2024-02-08T21:04:33.538Z,3.50
2024-02-08T21:07:03.749Z,3.10
2024-02-08T21:09:32.627Z,4.13
2024-02-08T21:12:01.432Z,2.72
2024-02-08T21:14:29.902Z,4.30
2024-02-08T21:17:00.657Z,3.45
2024-02-08T21:19:29.236Z,3.17
2024-02-08T21:21:58.459Z,3.15
2024-02-08T21:24:31.326Z,3.53
2024-02-08T21:27:00.915Z,3.45
2024-02-08T21:29:38.341Z,3.15
2024-02-08T21:32:07.286Z,3.20
2024-02-08T21:34:36.565Z,1.85
2024-02-08T21:37:08.276Z,3.47
2024-02-08T21:39:38.958Z,3.10
2024-02-08T21:42:08.524Z,3.05
2024-02-08T21:44:39.926Z,3.55
2024-02-08T21:47:08.646Z,3.28
2024-02-08T21:49:37.314Z,3.75
2024-02-08T21:52:08.855Z,2.55
2024-02-08T21:54:40.081Z,2.60
2024-02-08T21:57:09.799Z,3.25
2024-02-08T21:59:38.327Z,3.10
2024-02-08T22:04:54.038Z,3.60
2024-02-08T22:07:23.193Z,2.95
2024-02-08T22:09:54.701Z,3.83
2024-02-08T22:12:25.423Z,3.67
2024-02-08T22:14:54.004Z,2.78
2024-02-08T22:17:22.688Z,3.15
2024-02-08T22:19:53.114Z,1.95
2024-02-08T22:22:22.035Z,2.92
2024-02-08T22:24:50.620Z,2.97
2024-02-08T22:27:20.912Z,2.90
2024-02-08T22:29:49.666Z,3.65
2024-02-08T22:32:18.810Z,3.10
2024-02-08T22:34:47.441Z,3.75
2024-02-08T22:37:17.391Z,2.80
2024-02-08T22:39:46.393Z,3.30
2024-02-08T22:42:19.671Z,2.50
2024-02-08T22:44:50.279Z,2.75
2024-02-08T22:47:19.192Z,3.10
2024-02-08T22:49:47.889Z,2.95
2024-02-08T22:52:16.607Z,3.60
2024-02-08T22:54:45.061Z,3.20
2024-02-08T22:57:14.101Z,2.63
2024-02-08T22:59:45.728Z,3.10
2024-02-08T23:02:17.798Z,2.90
2024-02-08T23:04:50.024Z,2.90
2024-02-08T23:07:19.576Z,2.40
2024-02-08T23:09:48.134Z,2.60
2024-02-08T23:12:18.342Z,3.03
2024-02-08T23:14:48.659Z,2.70
2024-02-08T23:17:22.345Z,2.40
2024-02-08T23:19:51.204Z,3.50
2024-02-08T23:22:20.600Z,2.78
2024-02-08T23:24:49.709Z,3.08
2024-02-08T23:27:18.322Z,2.40
2024-02-08T23:29:47.581Z,2.17
2024-02-08T23:32:18.830Z,2.80
2024-02-08T23:34:48.853Z,2.80
2024-02-08T23:37:19.403Z,2.60
2024-02-08T23:39:47.946Z,2.80
2024-02-08T23:42:16.404Z,2.53
2024-02-08T23:44:44.958Z,2.90
2024-02-08T23:47:18.798Z,2.05
2024-02-08T23:49:49.003Z,2.63
2024-02-08T23:52:17.631Z,2.95
2024-02-08T23:54:49.172Z,2.85
2024-02-08T23:57:21.555Z,3.08
2024-02-08T23:59:52.798Z,2.50
